Time,TemperatureF,DewpointF,PressureIn,WindDirection,WindDirectionDegrees,WindSpeedMPH,WindSpeedGustMPH,Humidity,HourlyPrecipIn,Conditions,Clouds,dailyrainin,SoftwareType,DateUTC
2013-09-26 00:02:00,56.7,54.0,29.91,East,82,0.0,0.0,91,0.00,,,0.00,weatherlink.com 1.10,2013-09-26 04:02:00,
2013-09-26 00:17:00,56.4,54.0,29.92,East,82,0.0,0.0,91,0.00,,,0.00,weatherlink.com 1.10,2013-09-26 04:17:00,
2013-09-26 00:32:00,56.1,54.0,29.91,East,82,0.0,0.0,91,0.00,,,0.00,weatherlink.com 1.10,2013-09-26 04:32:00,
2013-09-26 00:47:00,55.7,54.0,29.91,East,82,0.0,0.0,92,0.00,,,0.00,weatherlink.com 1.10,2013-09-26 04:47:00,
2013-09-26 01:02:00,55.3,53.0,29.91,East,82,0.0,0.0,92,0.00,,,0.00,weatherlink.com 1.10,2013-09-26 05:02:00,
2013-09-26 01:17:00,54.8,53.0,29.91,East,82,0.0,0.0,93,0.00,,,0.00,weatherlink.com 1.10,2013-09-26 05:17:00,
2013-09-26 01:32:00,54.5,53.0,29.91,East,82,0.0,0.0,93,0.00,,,0.00,weatherlink.com 1.10,2013-09-26 05:32:00,
2013-09-26 01:47:00,54.4,53.0,29.91,East,82,0.0,0.0,94,0.00,,,0.00,weatherlink.com 1.10,2013-09-26 05:47:00,
2013-09-26 02:02:00,54.3,53.0,29.91,East,82,0.0,0.0,94,0.00,,,0.00,weatherlink.com 1.10,2013-09-26 06:02:00,
2013-09-26 02:17:00,54.1,53.0,29.92,East,82,0.0,0.0,94,0.00,,,0.00,weatherlink.com 1.10,2013-09-26 06:17:00,
2013-09-26 02:32:00,54.0,52.0,29.92,East,82,0.0,0.0,94,0.00,,,0.00,weatherlink.com 1.10,2013-09-26 06:32:00,
2013-09-26 02:47:00,53.9,52.0,29.92,East,82,0.0,0.0,94,0.00,,,0.00,weatherlink.com 1.10,2013-09-26 06:47:00,
2013-09-26 03:03:00,53.5,52.0,29.93,East,82,0.0,0.0,94,0.00,,,0.00,weatherlink.com 1.10,2013-09-26 07:03:00,
2013-09-26 03:18:00,53.0,51.0,29.93,East,82,0.0,0.0,94,0.00,,,0.00,weatherlink.com 1.10,2013-09-26 07:18:00,
2013-09-26 03:33:00,53.1,52.0,29.93,East,82,0.0,0.0,95,0.00,,,0.00,weatherlink.com 1.10,2013-09-26 07:33:00,
2013-09-26 03:48:00,52.8,51.0,29.93,East,82,0.0,0.0,94,0.00,,,0.00,weatherlink.com 1.10,2013-09-26 07:48:00,
2013-09-26 04:03:00,52.7,51.0,29.93,East,82,0.0,0.0,95,0.00,,,0.00,weatherlink.com 1.10,2013-09-26 08:03:00,
2013-09-26 04:18:00,52.6,51.0,29.93,East,82,0.0,0.0,95,0.00,,,0.00,weatherlink.com 1.10,2013-09-26 08:18:00,
2013-09-26 04:33:00,52.5,51.0,29.93,East,82,0.0,0.0,95,0.00,,,0.00,weatherlink.com 1.10,2013-09-26 08:33:00,
2013-09-26 04:48:00,52.4,51.0,29.93,East,82,0.0,0.0,95,0.00,,,0.00,weatherlink.com 1.10,2013-09-26 08:48:00,
2013-09-26 05:03:00,52.1,51.0,29.94,East,82,0.0,0.0,95,0.00,,,0.00,weatherlink.com 1.10,2013-09-26 09:03:00,
2013-09-26 05:18:00,51.7,50.0,29.94,East,82,0.0,0.0,95,0.00,,,0.00,weatherlink.com 1.10,2013-09-26 09:18:00,
2013-09-26 05:33:00,51.3,50.0,29.95,East,82,0.0,0.0,95,0.00,,,0.00,weatherlink.com 1.10,2013-09-26 09:33:00,
2013-09-26 05:48:00,50.8,50.0,29.95,East,82,0.0,0.0,95,0.00,,,0.00,weatherlink.com 1.10,2013-09-26 09:48:00,
2013-09-26 06:03:00,50.6,49.0,29.95,East,82,0.0,0.0,95,0.00,,,0.00,weatherlink.com 1.10,2013-09-26 10:03:00,
2013-09-26 06:18:00,50.5,49.0,29.95,East,82,0.0,0.0,95,0.00,,,0.00,weatherlink.com 1.10,2013-09-26 10:18:00,
2013-09-26 06:33:00,50.2,49.0,29.96,East,82,0.0,0.0,95,0.00,,,0.00,weatherlink.com 1.10,2013-09-26 10:33:00,
2013-09-26 06:48:00,50.0,49.0,29.96,East,82,0.0,0.0,95,0.00,,,0.00,weatherlink.com 1.10,2013-09-26 10:48:00,
2013-09-26 07:03:00,50.0,49.0,29.97,East,82,0.0,0.0,96,0.00,,,0.00,weatherlink.com 1.10,2013-09-26 11:03:00,
2013-09-26 07:18:00,50.3,49.0,29.97,East,82,0.0,0.0,96,0.00,,,0.00,weatherlink.com 1.10,2013-09-26 11:18:00,
2013-09-26 07:33:00,50.4,49.0,29.98,East,82,0.0,0.0,96,0.00,,,0.00,weatherlink.com 1.10,2013-09-26 11:33:00,
2013-09-26 07:48:00,50.3,49.0,29.99,East,82,0.0,0.0,96,0.00,,,0.00,weatherlink.com 1.10,2013-09-26 11:48:00,
2013-09-26 08:03:00,50.4,49.0,29.99,East,82,0.0,0.0,96,0.00,,,0.00,weatherlink.com 1.10,2013-09-26 12:03:00,
2013-09-26 08:18:00,50.9,50.0,30.00,East,82,0.0,0.0,96,0.00,,,0.00,weatherlink.com 1.10,2013-09-26 12:18:00,
2013-09-26 08:33:00,51.7,51.0,30.00,East,82,0.0,0.0,96,0.00,,,0.00,weatherlink.com 1.10,2013-09-26 12:33:00,
2013-09-26 08:48:00,52.9,52.0,30.00,East,82,0.0,0.0,96,0.00,,,0.00,weatherlink.com 1.10,2013-09-26 12:48:00,
2013-09-26 09:03:00,54.1,53.0,30.01,East,82,0.0,0.0,96,0.00,,,0.00,weatherlink.com 1.10,2013-09-26 13:03:00,
2013-09-26 09:18:00,55.6,54.0,30.01,East,82,0.0,1.0,94,0.00,,,0.00,weatherlink.com 1.10,2013-09-26 13:18:00,
2013-09-26 09:33:00,57.3,55.0,30.02,East,82,0.0,1.0,92,0.00,,,0.00,weatherlink.com 1.10,2013-09-26 13:33:00,
2013-09-26 09:48:00,59.0,56.0,30.02,WSW,257,0.0,2.0,89,0.00,,,0.00,weatherlink.com 1.10,2013-09-26 13:48:00,
2013-09-26 10:04:00,60.5,56.0,30.02,SSW,198,0.0,2.0,86,0.00,,,0.00,weatherlink.com 1.10,2013-09-26 14:04:00,
2013-09-26 10:19:00,62.2,57.0,30.02,South,184,0.0,2.0,84,0.00,,,0.00,weatherlink.com 1.10,2013-09-26 14:19:00,
2013-09-26 10:34:00,64.0,58.0,30.02,SSE,162,0.0,2.0,81,0.00,,,0.00,weatherlink.com 1.10,2013-09-26 14:34:00,
2013-09-26 10:49:00,65.2,59.0,30.02,South,186,0.0,2.0,79,0.00,,,0.00,weatherlink.com 1.10,2013-09-26 14:49:00,
2013-09-26 11:04:00,66.2,58.0,30.03,South,178,1.0,2.0,76,0.00,,,0.00,weatherlink.com 1.10,2013-09-26 15:04:00,
2013-09-26 11:19:00,67.1,59.0,30.02,South,186,1.0,3.0,75,0.00,,,0.00,weatherlink.com 1.10,2013-09-26 15:19:00,
2013-09-26 11:34:00,68.5,59.0,30.03,ENE,61,0.0,4.0,71,0.00,,,0.00,weatherlink.com 1.10,2013-09-26 15:34:00,
2013-09-26 11:49:00,69.4,60.0,30.03,SSE,167,0.0,4.0,73,0.00,,,0.00,weatherlink.com 1.10,2013-09-26 15:49:00,
2013-09-26 12:04:00,70.6,59.0,30.02,South,173,2.0,4.0,66,0.00,,,0.00,weatherlink.com 1.10,2013-09-26 16:04:00,
2013-09-26 12:19:00,72.6,59.0,30.02,SE,128,0.0,1.0,63,0.00,,,0.00,weatherlink.com 1.10,2013-09-26 16:19:00,
2013-09-26 12:34:00,73.9,59.0,30.02,South,189,0.0,1.0,61,0.00,,,0.00,weatherlink.com 1.10,2013-09-26 16:34:00,
2013-09-26 12:49:00,74.0,59.0,30.02,WSW,240,0.0,3.0,59,0.00,,,0.00,weatherlink.com 1.10,2013-09-26 16:49:00,
2013-09-26 13:04:00,74.5,59.0,30.02,East,89,0.0,3.0,59,0.00,,,0.00,weatherlink.com 1.10,2013-09-26 17:04:00,
2013-09-26 13:19:00,75.1,61.0,30.02,SE,127,0.0,3.0,61,0.00,,,0.00,weatherlink.com 1.10,2013-09-26 17:19:00,
2013-09-26 13:34:00,75.4,59.0,30.02,ESE,107,0.0,3.0,58,0.00,,,0.00,weatherlink.com 1.10,2013-09-26 17:34:00,
2013-09-26 13:49:00,75.4,59.0,30.01,SE,143,0.0,2.0,57,0.00,,,0.00,weatherlink.com 1.10,2013-09-26 17:49:00,
2013-09-26 14:04:00,75.4,59.0,30.00,SE,144,0.0,6.0,57,0.00,,,0.00,weatherlink.com 1.10,2013-09-26 18:04:00,
2013-09-26 14:19:00,75.2,61.0,30.00,SSW,202,0.0,3.0,62,0.00,,,0.00,weatherlink.com 1.10,2013-09-26 18:19:00,
2013-09-26 14:34:00,75.4,61.0,30.00,East,92,0.0,2.0,61,0.00,,,0.00,weatherlink.com 1.10,2013-09-26 18:34:00,
2013-09-26 14:49:00,75.4,62.0,29.99,South,170,0.0,3.0,63,0.00,,,0.00,weatherlink.com 1.10,2013-09-26 18:49:00,
2013-09-26 15:04:00,77.0,61.0,29.99,WSW,254,2.0,3.0,59,0.00,,,0.00,weatherlink.com 1.10,2013-09-26 19:04:00,
2013-09-26 15:19:00,77.5,59.0,29.99,SE,131,0.0,3.0,54,0.00,,,0.00,weatherlink.com 1.10,2013-09-26 19:19:00,
2013-09-26 15:34:00,76.9,60.0,29.98,SSW,196,1.0,7.0,56,0.00,,,0.00,weatherlink.com 1.10,2013-09-26 19:34:00,
2013-09-26 15:49:00,77.8,61.0,29.98,South,184,1.0,4.0,56,0.00,,,0.00,weatherlink.com 1.10,2013-09-26 19:49:00,
2013-09-26 16:05:00,78.2,61.0,29.98,South,171,0.0,4.0,55,0.00,,,0.00,weatherlink.com 1.10,2013-09-26 20:05:00,
2013-09-26 16:20:00,79.0,61.0,29.98,SSE,167,0.0,3.0,54,0.00,,,0.00,weatherlink.com 1.10,2013-09-26 20:20:00,
2013-09-26 16:35:00,78.9,61.0,29.98,SE,125,0.0,2.0,55,0.00,,,0.00,weatherlink.com 1.10,2013-09-26 20:35:00,
2013-09-26 16:50:00,79.4,60.0,29.98,NNW,348,1.0,1.0,52,0.00,,,0.00,weatherlink.com 1.10,2013-09-26 20:50:00,
2013-09-26 17:05:00,79.1,61.0,29.98,South,178,2.0,3.0,55,0.00,,,0.00,weatherlink.com 1.10,2013-09-26 21:05:00,
2013-09-26 17:20:00,79.0,61.0,29.98,South,190,0.0,3.0,55,0.00,,,0.00,weatherlink.com 1.10,2013-09-26 21:20:00,
2013-09-26 17:35:00,79.6,61.0,29.99,South,188,0.0,2.0,53,0.00,,,0.00,weatherlink.com 1.10,2013-09-26 21:35:00,
2013-09-26 17:50:00,78.6,60.0,29.99,ESE,103,0.0,2.0,53,0.00,,,0.00,weatherlink.com 1.10,2013-09-26 21:50:00,
2013-09-26 18:05:00,78.4,60.0,29.99,ESE,103,0.0,1.0,53,0.00,,,0.00,weatherlink.com 1.10,2013-09-26 22:05:00,
2013-09-26 18:20:00,77.6,60.0,30.00,ESE,103,1.0,1.0,54,0.00,,,0.00,weatherlink.com 1.10,2013-09-26 22:20:00,
2013-09-26 18:35:00,77.1,59.0,30.00,ESE,103,0.0,0.0,54,0.00,,,0.00,weatherlink.com 1.10,2013-09-26 22:35:00,
2013-09-26 18:50:00,76.4,59.0,30.00,ESE,103,0.0,0.0,56,0.00,,,0.00,weatherlink.com 1.10,2013-09-26 22:50:00,
2013-09-26 19:05:00,75.7,59.0,30.00,ESE,103,0.0,0.0,57,0.00,,,0.00,weatherlink.com 1.10,2013-09-26 23:05:00,
2013-09-26 19:20:00,74.8,59.0,30.00,ESE,103,0.0,0.0,58,0.00,,,0.00,weatherlink.com 1.10,2013-09-26 23:20:00,
2013-09-26 19:35:00,74.3,58.0,30.00,ESE,103,0.0,0.0,57,0.00,,,0.00,weatherlink.com 1.10,2013-09-26 23:35:00,
2013-09-26 19:50:00,73.1,59.0,30.00,ESE,103,0.0,1.0,61,0.00,,,0.00,weatherlink.com 1.10,2013-09-26 23:50:00,
2013-09-26 20:05:00,72.1,58.0,30.01,ESE,103,0.0,0.0,61,0.00,,,0.00,weatherlink.com 1.10,2013-09-27 00:05:00,
2013-09-26 20:20:00,71.7,58.0,30.01,ESE,103,0.0,0.0,63,0.00,,,0.00,weatherlink.com 1.10,2013-09-27 00:20:00,
2013-09-26 20:35:00,70.5,60.0,30.01,ESE,103,0.0,0.0,69,0.00,,,0.00,weatherlink.com 1.10,2013-09-27 00:35:00,
2013-09-26 20:50:00,69.4,60.0,30.02,ESE,103,0.0,0.0,73,0.00,,,0.00,weatherlink.com 1.10,2013-09-27 00:50:00,
2013-09-26 21:05:00,68.6,60.0,30.03,ESE,103,0.0,1.0,74,0.00,,,0.00,weatherlink.com 1.10,2013-09-27 01:05:00,
2013-09-26 21:20:00,67.8,60.0,30.03,ESE,103,0.0,0.0,76,0.00,,,0.00,weatherlink.com 1.10,2013-09-27 01:20:00,
2013-09-26 21:35:00,67.2,60.0,30.03,ESE,103,0.0,0.0,77,0.00,,,0.00,weatherlink.com 1.10,2013-09-27 01:35:00,
2013-09-26 21:50:00,66.5,60.0,30.04,ESE,103,0.0,0.0,80,0.00,,,0.00,weatherlink.com 1.10,2013-09-27 01:50:00,
2013-09-26 22:05:00,65.8,61.0,30.04,ESE,103,0.0,0.0,83,0.00,,,0.00,weatherlink.com 1.10,2013-09-27 02:05:00,
2013-09-26 22:20:00,65.2,60.0,30.04,ESE,103,0.0,0.0,83,0.00,,,0.00,weatherlink.com 1.10,2013-09-27 02:20:00,
2013-09-26 22:35:00,64.7,60.0,30.04,ESE,103,0.0,0.0,85,0.00,,,0.00,weatherlink.com 1.10,2013-09-27 02:35:00,
2013-09-26 22:50:00,64.0,60.0,30.04,ESE,103,0.0,0.0,86,0.00,,,0.00,weatherlink.com 1.10,2013-09-27 02:50:00,
2013-09-26 23:05:00,63.3,59.0,30.05,ESE,103,0.0,0.0,87,0.00,,,0.00,weatherlink.com 1.10,2013-09-27 03:05:00,
2013-09-26 23:20:00,62.7,60.0,30.04,ESE,103,0.0,1.0,89,0.00,,,0.00,weatherlink.com 1.10,2013-09-27 03:20:00,
2013-09-26 23:35:00,62.3,59.0,30.04,ESE,103,0.0,0.0,89,0.00,,,0.00,weatherlink.com 1.10,2013-09-27 03:35:00,
2013-09-26 23:50:00,62.0,59.0,30.05,ESE,103,0.0,0.0,90,0.00,,,0.00,weatherlink.com 1.10,2013-09-27 03:50:00,